<?xml version="1.0" encoding="UTF-8" standalone="no" ?>
<gpx xmlns="http://www.topografix.com/GPX/1/1" xmlns:xsi="http://www.w3.org/2001/XMLSchema-instance" xsi:schemaLocation="http://www.topografix.com/GPX/1/1 http://www.topografix.com/GPX/1/1/gpx.xsd" version="1.1" creator="VisuGPX - https://www.visugpx.com">
  <metadata>
    <name>rando le pizou 10 km</name>
    <desc><![CDATA[les photos sont visibles en suivant le lien [url]https://rando-pedestre-33.over-blog.com/2021/09/rando-le-pizou-10-km.html[/url]]]></desc>
  </metadata>
  <trk>
    <name><![CDATA[rando le pizou 10 km]]></name>
    <trkseg>
      <trkpt lat="45.02404" lon="0.06182">
        <ele>34</ele>
        <time>2021-09-30T21:38:15Z</time>
      </trkpt>
      <trkpt lat="45.02409" lon="0.05971">
        <ele>34</ele>
        <time>2021-09-30T21:38:20Z</time>
      </trkpt>
      <trkpt lat="45.02408" lon="0.05761">
        <ele>34</ele>
        <time>2021-09-30T21:38:25Z</time>
      </trkpt>
      <trkpt lat="45.02393" lon="0.05542">
        <ele>31</ele>
        <time>2021-09-30T21:38:30Z</time>
      </trkpt>
      <trkpt lat="45.02391" lon="0.05332">
        <ele>29</ele>
        <time>2021-09-30T21:38:35Z</time>
      </trkpt>
      <trkpt lat="45.02364" lon="0.05289">
        <ele>28</ele>
        <time>2021-09-30T21:38:40Z</time>
      </trkpt>
      <trkpt lat="45.02264" lon="0.05255">
        <ele>23</ele>
        <time>2021-09-30T21:38:45Z</time>
      </trkpt>
      <trkpt lat="45.02165" lon="0.05235">
        <ele>23</ele>
        <time>2021-09-30T21:38:50Z</time>
      </trkpt>
      <trkpt lat="45.02006" lon="0.05216">
        <ele>24</ele>
        <time>2021-09-30T21:38:55Z</time>
      </trkpt>
      <trkpt lat="45.01851" lon="0.05158">
        <ele>23</ele>
        <time>2021-09-30T21:39:00Z</time>
      </trkpt>
      <trkpt lat="45.01931" lon="0.05059">
        <ele>23</ele>
        <time>2021-09-30T21:39:05Z</time>
      </trkpt>
      <trkpt lat="45.01951" lon="0.04997">
        <ele>23</ele>
        <time>2021-09-30T21:39:10Z</time>
      </trkpt>
      <trkpt lat="45.02" lon="0.04847">
        <ele>21</ele>
        <time>2021-09-30T21:39:15Z</time>
      </trkpt>
      <trkpt lat="45.02053" lon="0.04705">
        <ele>22</ele>
        <time>2021-09-30T21:39:20Z</time>
      </trkpt>
      <trkpt lat="45.02183" lon="0.04682">
        <ele>21</ele>
        <time>2021-09-30T21:39:25Z</time>
      </trkpt>
      <trkpt lat="45.02301" lon="0.04673">
        <ele>23</ele>
        <time>2021-09-30T21:39:30Z</time>
      </trkpt>
      <trkpt lat="45.02345" lon="0.04591">
        <ele>24</ele>
        <time>2021-09-30T21:39:35Z</time>
      </trkpt>
      <trkpt lat="45.02391" lon="0.044">
        <ele>22</ele>
        <time>2021-09-30T21:39:40Z</time>
      </trkpt>
      <trkpt lat="45.02433" lon="0.04362">
        <ele>23</ele>
        <time>2021-09-30T21:39:45Z</time>
      </trkpt>
      <trkpt lat="45.0245" lon="0.04192">
        <ele>24</ele>
        <time>2021-09-30T21:39:50Z</time>
      </trkpt>
      <trkpt lat="45.02411" lon="0.0404">
        <ele>22</ele>
        <time>2021-09-30T21:39:55Z</time>
      </trkpt>
      <trkpt lat="45.02313" lon="0.04085">
        <ele>22</ele>
        <time>2021-09-30T21:40:00Z</time>
      </trkpt>
      <trkpt lat="45.02239" lon="0.04119">
        <ele>20</ele>
        <time>2021-09-30T21:40:05Z</time>
      </trkpt>
      <trkpt lat="45.02201" lon="0.04145">
        <ele>19</ele>
        <time>2021-09-30T21:40:10Z</time>
      </trkpt>
      <trkpt lat="45.02168" lon="0.04171">
        <ele>19</ele>
        <time>2021-09-30T21:40:15Z</time>
      </trkpt>
      <trkpt lat="45.02043" lon="0.04219">
        <ele>21</ele>
        <time>2021-09-30T21:40:20Z</time>
      </trkpt>
      <trkpt lat="45.01924" lon="0.04263">
        <ele>23</ele>
        <time>2021-09-30T21:40:25Z</time>
      </trkpt>
      <trkpt lat="45.01907" lon="0.04261">
        <ele>23</ele>
        <time>2021-09-30T21:40:30Z</time>
      </trkpt>
      <trkpt lat="45.0186" lon="0.04242">
        <ele>23</ele>
        <time>2021-09-30T21:40:35Z</time>
      </trkpt>
      <trkpt lat="45.01818" lon="0.04248">
        <ele>22</ele>
        <time>2021-09-30T21:40:40Z</time>
      </trkpt>
      <trkpt lat="45.01769" lon="0.04272">
        <ele>23</ele>
        <time>2021-09-30T21:40:45Z</time>
      </trkpt>
      <trkpt lat="45.01721" lon="0.04347">
        <ele>22</ele>
        <time>2021-09-30T21:40:50Z</time>
      </trkpt>
      <trkpt lat="45.01676" lon="0.04426">
        <ele>23</ele>
        <time>2021-09-30T21:40:55Z</time>
      </trkpt>
      <trkpt lat="45.01616" lon="0.04523">
        <ele>23</ele>
        <time>2021-09-30T21:41:00Z</time>
      </trkpt>
      <trkpt lat="45.01558" lon="0.04647">
        <ele>22</ele>
        <time>2021-09-30T21:41:05Z</time>
      </trkpt>
      <trkpt lat="45.01508" lon="0.04776">
        <ele>21</ele>
        <time>2021-09-30T21:41:10Z</time>
      </trkpt>
      <trkpt lat="45.0147" lon="0.04911">
        <ele>20</ele>
        <time>2021-09-30T21:41:15Z</time>
      </trkpt>
      <trkpt lat="45.01478" lon="0.0498">
        <ele>21</ele>
        <time>2021-09-30T21:41:20Z</time>
      </trkpt>
      <trkpt lat="45.01472" lon="0.05042">
        <ele>21</ele>
        <time>2021-09-30T21:41:25Z</time>
      </trkpt>
      <trkpt lat="45.01549" lon="0.05083">
        <ele>21</ele>
        <time>2021-09-30T21:41:30Z</time>
      </trkpt>
      <trkpt lat="45.01637" lon="0.05132">
        <ele>20</ele>
        <time>2021-09-30T21:41:35Z</time>
      </trkpt>
      <trkpt lat="45.01613" lon="0.05263">
        <ele>22</ele>
        <time>2021-09-30T21:41:40Z</time>
      </trkpt>
      <trkpt lat="45.0157" lon="0.0546">
        <ele>22</ele>
        <time>2021-09-30T21:41:45Z</time>
      </trkpt>
      <trkpt lat="45.0152" lon="0.05624">
        <ele>22</ele>
        <time>2021-09-30T21:41:50Z</time>
      </trkpt>
      <trkpt lat="45.01481" lon="0.05793">
        <ele>22</ele>
        <time>2021-09-30T21:41:55Z</time>
      </trkpt>
      <trkpt lat="45.01497" lon="0.05901">
        <ele>22</ele>
        <time>2021-09-30T21:42:00Z</time>
      </trkpt>
      <trkpt lat="45.01502" lon="0.06035">
        <ele>24</ele>
        <time>2021-09-30T21:42:05Z</time>
      </trkpt>
      <trkpt lat="45.01572" lon="0.06147">
        <ele>23</ele>
        <time>2021-09-30T21:42:10Z</time>
      </trkpt>
      <trkpt lat="45.01598" lon="0.06235">
        <ele>22</ele>
        <time>2021-09-30T21:42:15Z</time>
      </trkpt>
      <trkpt lat="45.0164" lon="0.06325">
        <ele>23</ele>
        <time>2021-09-30T21:42:20Z</time>
      </trkpt>
      <trkpt lat="45.01701" lon="0.06347">
        <ele>23</ele>
        <time>2021-09-30T21:42:25Z</time>
      </trkpt>
      <trkpt lat="45.01757" lon="0.06377">
        <ele>23</ele>
        <time>2021-09-30T21:42:30Z</time>
      </trkpt>
      <trkpt lat="45.01733" lon="0.06553">
        <ele>22</ele>
        <time>2021-09-30T21:42:35Z</time>
      </trkpt>
      <trkpt lat="45.01749" lon="0.06645">
        <ele>22</ele>
        <time>2021-09-30T21:42:40Z</time>
      </trkpt>
      <trkpt lat="45.01751" lon="0.06727">
        <ele>23</ele>
        <time>2021-09-30T21:42:45Z</time>
      </trkpt>
      <trkpt lat="45.01719" lon="0.06836">
        <ele>23</ele>
        <time>2021-09-30T21:42:50Z</time>
      </trkpt>
      <trkpt lat="45.01675" lon="0.06967">
        <ele>23</ele>
        <time>2021-09-30T21:42:55Z</time>
      </trkpt>
      <trkpt lat="45.01643" lon="0.07064">
        <ele>22</ele>
        <time>2021-09-30T21:43:00Z</time>
      </trkpt>
      <trkpt lat="45.01622" lon="0.0716">
        <ele>21</ele>
        <time>2021-09-30T21:43:05Z</time>
      </trkpt>
      <trkpt lat="45.0163" lon="0.07243">
        <ele>21</ele>
        <time>2021-09-30T21:43:10Z</time>
      </trkpt>
      <trkpt lat="45.01655" lon="0.07289">
        <ele>22</ele>
        <time>2021-09-30T21:43:15Z</time>
      </trkpt>
      <trkpt lat="45.01714" lon="0.07385">
        <ele>23</ele>
        <time>2021-09-30T21:43:20Z</time>
      </trkpt>
      <trkpt lat="45.01778" lon="0.07471">
        <ele>23</ele>
        <time>2021-09-30T21:43:25Z</time>
      </trkpt>
      <trkpt lat="45.01812" lon="0.07537">
        <ele>24</ele>
        <time>2021-09-30T21:43:30Z</time>
      </trkpt>
      <trkpt lat="45.0182" lon="0.07579">
        <ele>25</ele>
        <time>2021-09-30T21:43:35Z</time>
      </trkpt>
      <trkpt lat="45.01832" lon="0.07589">
        <ele>25</ele>
        <time>2021-09-30T21:43:40Z</time>
      </trkpt>
      <trkpt lat="45.01805" lon="0.07699">
        <ele>25</ele>
        <time>2021-09-30T21:43:45Z</time>
      </trkpt>
      <trkpt lat="45.01762" lon="0.07771">
        <ele>25</ele>
        <time>2021-09-30T21:43:50Z</time>
      </trkpt>
      <trkpt lat="45.01727" lon="0.07787">
        <ele>26</ele>
        <time>2021-09-30T21:43:55Z</time>
      </trkpt>
      <trkpt lat="45.01763" lon="0.07777">
        <ele>25</ele>
        <time>2021-09-30T21:44:00Z</time>
      </trkpt>
      <trkpt lat="45.01807" lon="0.07701">
        <ele>25</ele>
        <time>2021-09-30T21:44:05Z</time>
      </trkpt>
      <trkpt lat="45.01837" lon="0.07591">
        <ele>25</ele>
        <time>2021-09-30T21:44:10Z</time>
      </trkpt>
      <trkpt lat="45.01868" lon="0.0754">
        <ele>25</ele>
        <time>2021-09-30T21:44:15Z</time>
      </trkpt>
      <trkpt lat="45.01944" lon="0.07477">
        <ele>26</ele>
        <time>2021-09-30T21:44:20Z</time>
      </trkpt>
      <trkpt lat="45.01963" lon="0.07619">
        <ele>25</ele>
        <time>2021-09-30T21:44:25Z</time>
      </trkpt>
      <trkpt lat="45.01962" lon="0.07686">
        <ele>24</ele>
        <time>2021-09-30T21:44:30Z</time>
      </trkpt>
      <trkpt lat="45.0197" lon="0.0774">
        <ele>25</ele>
        <time>2021-09-30T21:44:35Z</time>
      </trkpt>
      <trkpt lat="45.01985" lon="0.07758">
        <ele>25</ele>
        <time>2021-09-30T21:44:40Z</time>
      </trkpt>
      <trkpt lat="45.02011" lon="0.07755">
        <ele>26</ele>
        <time>2021-09-30T21:44:45Z</time>
      </trkpt>
      <trkpt lat="45.02051" lon="0.07748">
        <ele>26</ele>
        <time>2021-09-30T21:44:50Z</time>
      </trkpt>
      <trkpt lat="45.02072" lon="0.07761">
        <ele>26</ele>
        <time>2021-09-30T21:44:55Z</time>
      </trkpt>
      <trkpt lat="45.02118" lon="0.07789">
        <ele>25</ele>
        <time>2021-09-30T21:45:00Z</time>
      </trkpt>
      <trkpt lat="45.02203" lon="0.07806">
        <ele>25</ele>
        <time>2021-09-30T21:45:05Z</time>
      </trkpt>
      <trkpt lat="45.02273" lon="0.07872">
        <ele>25</ele>
        <time>2021-09-30T21:45:10Z</time>
      </trkpt>
      <trkpt lat="45.02308" lon="0.07921">
        <ele>25</ele>
        <time>2021-09-30T21:45:15Z</time>
      </trkpt>
      <trkpt lat="45.02341" lon="0.07978">
        <ele>25</ele>
        <time>2021-09-30T21:45:20Z</time>
      </trkpt>
      <trkpt lat="45.02402" lon="0.08105">
        <ele>26</ele>
        <time>2021-09-30T21:45:25Z</time>
      </trkpt>
      <trkpt lat="45.02428" lon="0.08121">
        <ele>26</ele>
        <time>2021-09-30T21:45:30Z</time>
      </trkpt>
      <trkpt lat="45.02541" lon="0.08065">
        <ele>28</ele>
        <time>2021-09-30T21:45:35Z</time>
      </trkpt>
      <trkpt lat="45.02623" lon="0.08008">
        <ele>30</ele>
        <time>2021-09-30T21:45:40Z</time>
      </trkpt>
      <trkpt lat="45.02701" lon="0.07928">
        <ele>28</ele>
        <time>2021-09-30T21:45:45Z</time>
      </trkpt>
      <trkpt lat="45.02694" lon="0.07887">
        <ele>27</ele>
        <time>2021-09-30T21:45:50Z</time>
      </trkpt>
      <trkpt lat="45.02644" lon="0.07762">
        <ele>27</ele>
        <time>2021-09-30T21:45:55Z</time>
      </trkpt>
      <trkpt lat="45.02599" lon="0.07663">
        <ele>25</ele>
        <time>2021-09-30T21:46:00Z</time>
      </trkpt>
      <trkpt lat="45.02529" lon="0.07514">
        <ele>25</ele>
        <time>2021-09-30T21:46:05Z</time>
      </trkpt>
      <trkpt lat="45.02462" lon="0.07364">
        <ele>27</ele>
        <time>2021-09-30T21:46:10Z</time>
      </trkpt>
      <trkpt lat="45.02437" lon="0.07303">
        <ele>27</ele>
        <time>2021-09-30T21:46:15Z</time>
      </trkpt>
      <trkpt lat="45.02409" lon="0.07232">
        <ele>26</ele>
        <time>2021-09-30T21:46:20Z</time>
      </trkpt>
      <trkpt lat="45.02353" lon="0.07104">
        <ele>25</ele>
        <time>2021-09-30T21:46:25Z</time>
      </trkpt>
      <trkpt lat="45.02295" lon="0.06965">
        <ele>25</ele>
        <time>2021-09-30T21:46:30Z</time>
      </trkpt>
      <trkpt lat="45.0224" lon="0.06847">
        <ele>25</ele>
        <time>2021-09-30T21:46:35Z</time>
      </trkpt>
      <trkpt lat="45.02234" lon="0.06821">
        <ele>25</ele>
        <time>2021-09-30T21:46:40Z</time>
      </trkpt>
      <trkpt lat="45.0223" lon="0.06776">
        <ele>24</ele>
        <time>2021-09-30T21:46:45Z</time>
      </trkpt>
      <trkpt lat="45.02241" lon="0.06744">
        <ele>24</ele>
        <time>2021-09-30T21:46:50Z</time>
      </trkpt>
      <trkpt lat="45.0226" lon="0.06724">
        <ele>24</ele>
        <time>2021-09-30T21:46:55Z</time>
      </trkpt>
      <trkpt lat="45.02282" lon="0.06708">
        <ele>24</ele>
        <time>2021-09-30T21:47:00Z</time>
      </trkpt>
      <trkpt lat="45.02333" lon="0.06685">
        <ele>27</ele>
        <time>2021-09-30T21:47:05Z</time>
      </trkpt>
      <trkpt lat="45.02344" lon="0.06486">
        <ele>27</ele>
        <time>2021-09-30T21:47:10Z</time>
      </trkpt>
      <trkpt lat="45.02423" lon="0.06493">
        <ele>32</ele>
        <time>2021-09-30T21:47:15Z</time>
      </trkpt>
      <trkpt lat="45.02426" lon="0.06445">
        <ele>33</ele>
        <time>2021-09-30T21:47:20Z</time>
      </trkpt>
      <trkpt lat="45.0242" lon="0.06396">
        <ele>33</ele>
        <time>2021-09-30T21:47:25Z</time>
      </trkpt>
      <trkpt lat="45.02408" lon="0.06371">
        <ele>33</ele>
        <time>2021-09-30T21:47:30Z</time>
      </trkpt>
      <trkpt lat="45.02413" lon="0.06332">
        <ele>34</ele>
        <time>2021-09-30T21:47:35Z</time>
      </trkpt>
      <trkpt lat="45.02424" lon="0.06303">
        <ele>34</ele>
        <time>2021-09-30T21:47:40Z</time>
      </trkpt>
      <trkpt lat="45.02427" lon="0.06273">
        <ele>34</ele>
        <time>2021-09-30T21:47:45Z</time>
      </trkpt>
      <trkpt lat="45.02426" lon="0.0622">
        <ele>35</ele>
        <time>2021-09-30T21:47:50Z</time>
      </trkpt>
      <trkpt lat="45.02401" lon="0.06221">
        <ele>33</ele>
        <time>2021-09-30T21:47:55Z</time>
      </trkpt>
      <trkpt lat="45.02405" lon="0.06185">
        <ele>34</ele>
        <time>2021-09-30T21:48:00Z</time>
      </trkpt>
    </trkseg>
  </trk>
</gpx>